sensor_id;sensor_type;location;lat;lon;timestamp;P1;durP1;ratioP1;P2;durP2;ratioP2
21183;SDS011;18176;49.502;11.754;2022-09-17T00:01:02;4.43;;;2.83;;
21183;SDS011;18176;49.502;11.754;2022-09-17T00:05:00;4.87;;;3.03;;
21183;SDS011;18176;49.502;11.754;2022-09-17T00:08:57;3.57;;;2.60;;
21183;SDS011;18176;49.502;11.754;2022-09-17T00:12:54;3.53;;;3.10;;
21183;SDS011;18176;49.502;11.754;2022-09-17T00:16:51;4.70;;;3.37;;
21183;SDS011;18176;49.502;11.754;2022-09-17T00:20:56;3.73;;;3.40;;
21183;SDS011;18176;49.502;11.754;2022-09-17T00:24:53;4.83;;;3.10;;
21183;SDS011;18176;49.502;11.754;2022-09-17T00:28:51;3.30;;;3.00;;
21183;SDS011;18176;49.502;11.754;2022-09-17T00:32:50;5.90;;;3.30;;
21183;SDS011;18176;49.502;11.754;2022-09-17T00:36:48;4.83;;;3.27;;
21183;SDS011;18176;49.502;11.754;2022-09-17T00:40:45;6.43;;;3.17;;
21183;SDS011;18176;49.502;11.754;2022-09-17T00:44:44;5.03;;;3.07;;
21183;SDS011;18176;49.502;11.754;2022-09-17T00:48:48;7.60;;;3.23;;
21183;SDS011;18176;49.502;11.754;2022-09-17T00:52:55;5.07;;;3.13;;
21183;SDS011;18176;49.502;11.754;2022-09-17T00:57:09;5.40;;;3.07;;
21183;SDS011;18176;49.502;11.754;2022-09-17T01:01:06;3.80;;;2.73;;
21183;SDS011;18176;49.502;11.754;2022-09-17T01:05:04;5.47;;;2.87;;
21183;SDS011;18176;49.502;11.754;2022-09-17T01:13:33;4.23;;;3.20;;
21183;SDS011;18176;49.502;11.754;2022-09-17T01:35:51;6.07;;;3.00;;
21183;SDS011;18176;49.502;11.754;2022-09-17T01:40:29;7.10;;;3.40;;
21183;SDS011;18176;49.502;11.754;2022-09-17T01:44:49;8.23;;;3.10;;
21183;SDS011;18176;49.502;11.754;2022-09-17T01:49:03;9.20;;;3.00;;
21183;SDS011;18176;49.502;11.754;2022-09-17T01:53:03;7.77;;;3.10;;
21183;SDS011;18176;49.502;11.754;2022-09-17T01:57:07;8.27;;;3.50;;
21183;SDS011;18176;49.502;11.754;2022-09-17T02:01:15;7.37;;;3.43;;
21183;SDS011;18176;49.502;11.754;2022-09-17T02:05:28;5.97;;;3.33;;
21183;SDS011;18176;49.502;11.754;2022-09-17T02:09:42;7.03;;;3.67;;
21183;SDS011;18176;49.502;11.754;2022-09-17T02:13:59;8.90;;;3.90;;
21183;SDS011;18176;49.502;11.754;2022-09-17T02:18:16;7.80;;;3.60;;
21183;SDS011;18176;49.502;11.754;2022-09-17T02:22:42;7.47;;;3.70;;
21183;SDS011;18176;49.502;11.754;2022-09-17T02:27:03;11.03;;;3.80;;
21183;SDS011;18176;49.502;11.754;2022-09-17T02:31:17;12.87;;;4.63;;
21183;SDS011;18176;49.502;11.754;2022-09-17T02:35:15;5.70;;;4.30;;
21183;SDS011;18176;49.502;11.754;2022-09-17T02:39:12;11.30;;;4.33;;
21183;SDS011;18176;49.502;11.754;2022-09-17T02:43:15;6.80;;;4.27;;
21183;SDS011;18176;49.502;11.754;2022-09-17T02:47:44;9.43;;;4.57;;
21183;SDS011;18176;49.502;11.754;2022-09-17T02:56:56;8.20;;;4.87;;
21183;SDS011;18176;49.502;11.754;2022-09-17T03:00:59;8.80;;;4.30;;
21183;SDS011;18176;49.502;11.754;2022-09-17T03:05:08;8.70;;;4.27;;
21183;SDS011;18176;49.502;11.754;2022-09-17T03:09:07;9.77;;;4.10;;
21183;SDS011;18176;49.502;11.754;2022-09-17T03:13:04;7.63;;;4.27;;
21183;SDS011;18176;49.502;11.754;2022-09-17T03:17:02;8.53;;;4.10;;
21183;SDS011;18176;49.502;11.754;2022-09-17T03:20:59;9.63;;;4.30;;
21183;SDS011;18176;49.502;11.754;2022-09-17T03:24:56;6.37;;;3.90;;
21183;SDS011;18176;49.502;11.754;2022-09-17T03:28:53;8.67;;;3.90;;
21183;SDS011;18176;49.502;11.754;2022-09-17T03:32:50;7.03;;;4.03;;
21183;SDS011;18176;49.502;11.754;2022-09-17T03:36:47;7.40;;;3.80;;
21183;SDS011;18176;49.502;11.754;2022-09-17T03:40:55;5.70;;;3.80;;
21183;SDS011;18176;49.502;11.754;2022-09-17T03:44:57;8.60;;;4.00;;
21183;SDS011;18176;49.502;11.754;2022-09-17T03:48:54;7.77;;;4.00;;
21183;SDS011;18176;49.502;11.754;2022-09-17T03:52:51;9.67;;;3.90;;
21183;SDS011;18176;49.502;11.754;2022-09-17T03:56:48;9.97;;;4.20;;
21183;SDS011;18176;49.502;11.754;2022-09-17T04:00:46;13.07;;;4.73;;
21183;SDS011;18176;49.502;11.754;2022-09-17T04:04:48;7.77;;;3.80;;
21183;SDS011;18176;49.502;11.754;2022-09-17T04:08:45;8.63;;;3.83;;
21183;SDS011;18176;49.502;11.754;2022-09-17T04:12:42;9.67;;;4.33;;
21183;SDS011;18176;49.502;11.754;2022-09-17T04:16:39;11.03;;;4.17;;
21183;SDS011;18176;49.502;11.754;2022-09-17T04:20:38;9.47;;;4.57;;
21183;SDS011;18176;49.502;11.754;2022-09-17T04:24:36;7.47;;;4.57;;
21183;SDS011;18176;49.502;11.754;2022-09-17T04:28:33;10.43;;;4.90;;
21183;SDS011;18176;49.502;11.754;2022-09-17T04:32:30;14.00;;;4.63;;
21183;SDS011;18176;49.502;11.754;2022-09-17T04:36:27;12.33;;;4.70;;
21183;SDS011;18176;49.502;11.754;2022-09-17T04:40:25;8.77;;;4.30;;
21183;SDS011;18176;49.502;11.754;2022-09-17T04:44:24;9.70;;;4.57;;
21183;SDS011;18176;49.502;11.754;2022-09-17T04:48:21;12.53;;;4.20;;
21183;SDS011;18176;49.502;11.754;2022-09-17T04:52:18;11.53;;;4.30;;
21183;SDS011;18176;49.502;11.754;2022-09-17T04:56:15;10.77;;;4.87;;
21183;SDS011;18176;49.502;11.754;2022-09-17T05:00:12;9.87;;;4.30;;
21183;SDS011;18176;49.502;11.754;2022-09-17T05:04:11;8.83;;;4.17;;
21183;SDS011;18176;49.502;11.754;2022-09-17T05:08:08;11.47;;;4.50;;
21183;SDS011;18176;49.502;11.754;2022-09-17T05:12:05;9.07;;;4.47;;
21183;SDS011;18176;49.502;11.754;2022-09-17T05:16:02;10.27;;;4.20;;
21183;SDS011;18176;49.502;11.754;2022-09-17T05:20:00;8.70;;;4.17;;
21183;SDS011;18176;49.502;11.754;2022-09-17T05:23:57;6.40;;;3.80;;
21183;SDS011;18176;49.502;11.754;2022-09-17T05:27:59;7.73;;;4.03;;
21183;SDS011;18176;49.502;11.754;2022-09-17T05:31:56;8.93;;;3.70;;
21183;SDS011;18176;49.502;11.754;2022-09-17T05:35:53;11.70;;;4.23;;
21183;SDS011;18176;49.502;11.754;2022-09-17T05:39:50;12.73;;;4.97;;
21183;SDS011;18176;49.502;11.754;2022-09-17T05:43:47;10.97;;;4.10;;
21183;SDS011;18176;49.502;11.754;2022-09-17T05:47:44;8.20;;;4.77;;
21183;SDS011;18176;49.502;11.754;2022-09-17T05:51:41;7.40;;;4.17;;
21183;SDS011;18176;49.502;11.754;2022-09-17T05:55:38;11.60;;;4.30;;
21183;SDS011;18176;49.502;11.754;2022-09-17T05:59:35;10.23;;;3.93;;
21183;SDS011;18176;49.502;11.754;2022-09-17T06:03:32;11.60;;;4.37;;
21183;SDS011;18176;49.502;11.754;2022-09-17T06:07:29;8.60;;;3.63;;
21183;SDS011;18176;49.502;11.754;2022-09-17T06:11:26;10.67;;;3.37;;
21183;SDS011;18176;49.502;11.754;2022-09-17T06:15:24;4.90;;;2.70;;
21183;SDS011;18176;49.502;11.754;2022-09-17T06:19:23;6.27;;;2.60;;
21183;SDS011;18176;49.502;11.754;2022-09-17T06:23:20;5.90;;;2.20;;
21183;SDS011;18176;49.502;11.754;2022-09-17T06:27:17;7.00;;;2.20;;
21183;SDS011;18176;49.502;11.754;2022-09-17T06:31:14;5.30;;;2.10;;
21183;SDS011;18176;49.502;11.754;2022-09-17T06:35:11;4.67;;;1.90;;
21183;SDS011;18176;49.502;11.754;2022-09-17T06:39:08;1.40;;;1.30;;
21183;SDS011;18176;49.502;11.754;2022-09-17T06:43:07;3.27;;;1.47;;
21183;SDS011;18176;49.502;11.754;2022-09-17T06:47:04;2.33;;;1.40;;
21183;SDS011;18176;49.502;11.754;2022-09-17T06:51:02;2.43;;;1.70;;
21183;SDS011;18176;49.502;11.754;2022-09-17T06:55:05;2.40;;;1.43;;
21183;SDS011;18176;49.502;11.754;2022-09-17T06:59:02;3.00;;;1.40;;
21183;SDS011;18176;49.502;11.754;2022-09-17T07:03:02;3.30;;;1.60;;
21183;SDS011;18176;49.502;11.754;2022-09-17T07:06:59;2.80;;;1.63;;
21183;SDS011;18176;49.502;11.754;2022-09-17T07:10:57;2.50;;;1.20;;
21183;SDS011;18176;49.502;11.754;2022-09-17T07:14:54;2.47;;;1.37;;
21183;SDS011;18176;49.502;11.754;2022-09-17T07:18:51;4.23;;;1.73;;
21183;SDS011;18176;49.502;11.754;2022-09-17T07:22:55;1.33;;;1.17;;
21183;SDS011;18176;49.502;11.754;2022-09-17T07:26:53;4.13;;;1.00;;
21183;SDS011;18176;49.502;11.754;2022-09-17T07:30:50;2.07;;;1.33;;
21183;SDS011;18176;49.502;11.754;2022-09-17T07:34:48;3.37;;;1.40;;
21183;SDS011;18176;49.502;11.754;2022-09-17T07:38:48;2.57;;;1.20;;
21183;SDS011;18176;49.502;11.754;2022-09-17T07:42:45;2.23;;;1.10;;
21183;SDS011;18176;49.502;11.754;2022-09-17T07:46:42;2.53;;;0.90;;
21183;SDS011;18176;49.502;11.754;2022-09-17T07:50:39;0.90;;;0.90;;
21183;SDS011;18176;49.502;11.754;2022-09-17T07:54:36;3.23;;;1.10;;
21183;SDS011;18176;49.502;11.754;2022-09-17T07:58:33;1.30;;;1.10;;
21183;SDS011;18176;49.502;11.754;2022-09-17T08:02:32;1.33;;;0.93;;
21183;SDS011;18176;49.502;11.754;2022-09-17T08:06:29;1.07;;;0.80;;
21183;SDS011;18176;49.502;11.754;2022-09-17T08:10:26;2.17;;;0.80;;
21183;SDS011;18176;49.502;11.754;2022-09-17T08:14:23;1.33;;;0.90;;
21183;SDS011;18176;49.502;11.754;2022-09-17T08:18:25;2.10;;;1.00;;
21183;SDS011;18176;49.502;11.754;2022-09-17T08:22:23;3.43;;;2.00;;
21183;SDS011;18176;49.502;11.754;2022-09-17T08:26:20;2.13;;;1.03;;
21183;SDS011;18176;49.502;11.754;2022-09-17T08:30:18;1.13;;;0.80;;
21183;SDS011;18176;49.502;11.754;2022-09-17T08:34:16;1.63;;;1.10;;
21183;SDS011;18176;49.502;11.754;2022-09-17T08:38:13;5.87;;;1.40;;
21183;SDS011;18176;49.502;11.754;2022-09-17T08:46:30;1.50;;;1.40;;
21183;SDS011;18176;49.502;11.754;2022-09-17T08:50:36;3.33;;;1.80;;
21183;SDS011;18176;49.502;11.754;2022-09-17T08:54:40;3.43;;;1.53;;
21183;SDS011;18176;49.502;11.754;2022-09-17T09:07:44;3.00;;;2.10;;
21183;SDS011;18176;49.502;11.754;2022-09-17T09:12:03;3.37;;;2.30;;
21183;SDS011;18176;49.502;11.754;2022-09-17T09:16:14;4.57;;;2.70;;
21183;SDS011;18176;49.502;11.754;2022-09-17T09:20:25;5.20;;;2.67;;
21183;SDS011;18176;49.502;11.754;2022-09-17T09:24:39;5.63;;;2.63;;
21183;SDS011;18176;49.502;11.754;2022-09-17T09:28:49;6.80;;;3.20;;
21183;SDS011;18176;49.502;11.754;2022-09-17T09:33:14;4.77;;;3.17;;
21183;SDS011;18176;49.502;11.754;2022-09-17T09:59:22;10.67;;;3.53;;
21183;SDS011;18176;49.502;11.754;2022-09-17T10:03:27;8.17;;;2.97;;
21183;SDS011;18176;49.502;11.754;2022-09-17T10:07:28;7.37;;;3.13;;
21183;SDS011;18176;49.502;11.754;2022-09-17T10:11:28;7.90;;;2.80;;
21183;SDS011;18176;49.502;11.754;2022-09-17T10:15:30;6.57;;;2.60;;
21183;SDS011;18176;49.502;11.754;2022-09-17T10:19:27;11.40;;;2.83;;
21183;SDS011;18176;49.502;11.754;2022-09-17T10:23:25;7.47;;;2.60;;
21183;SDS011;18176;49.502;11.754;2022-09-17T10:27:27;8.30;;;2.73;;
21183;SDS011;18176;49.502;11.754;2022-09-17T10:31:25;9.10;;;2.80;;
21183;SDS011;18176;49.502;11.754;2022-09-17T10:35:24;6.97;;;2.50;;
21183;SDS011;18176;49.502;11.754;2022-09-17T10:39:35;11.60;;;2.50;;
21183;SDS011;18176;49.502;11.754;2022-09-17T10:43:40;7.40;;;2.90;;
21183;SDS011;18176;49.502;11.754;2022-09-17T10:47:40;12.10;;;3.00;;
21183;SDS011;18176;49.502;11.754;2022-09-17T10:51:39;9.23;;;3.13;;
21183;SDS011;18176;49.502;11.754;2022-09-17T10:55:37;9.00;;;2.60;;
21183;SDS011;18176;49.502;11.754;2022-09-17T10:59:46;10.03;;;3.17;;
21183;SDS011;18176;49.502;11.754;2022-09-17T11:08:25;9.40;;;2.70;;
21183;SDS011;18176;49.502;11.754;2022-09-17T11:12:46;6.93;;;2.53;;
21183;SDS011;18176;49.502;11.754;2022-09-17T11:17:11;13.80;;;2.60;;
21183;SDS011;18176;49.502;11.754;2022-09-17T11:21:39;11.70;;;2.60;;
21183;SDS011;18176;49.502;11.754;2022-09-17T11:30:03;7.63;;;2.40;;
21183;SDS011;18176;49.502;11.754;2022-09-17T11:38:33;9.20;;;2.80;;
21183;SDS011;18176;49.502;11.754;2022-09-17T11:42:47;8.67;;;2.63;;
21183;SDS011;18176;49.502;11.754;2022-09-17T11:46:53;7.73;;;2.20;;
21183;SDS011;18176;49.502;11.754;2022-09-17T11:51:49;7.17;;;2.20;;
21183;SDS011;18176;49.502;11.754;2022-09-17T11:55:39;8.33;;;2.53;;
21183;SDS011;18176;49.502;11.754;2022-09-17T12:04:18;6.30;;;2.38;;
21183;SDS011;18176;49.502;11.754;2022-09-17T12:08:44;7.45;;;2.30;;
21183;SDS011;18176;49.502;11.754;2022-09-17T12:17:39;6.80;;;2.38;;
21183;SDS011;18176;49.502;11.754;2022-09-17T12:22:12;8.20;;;2.47;;
21183;SDS011;18176;49.502;11.754;2022-09-17T12:30:55;4.53;;;1.60;;
21183;SDS011;18176;49.502;11.754;2022-09-17T12:53:42;7.88;;;1.80;;
21183;SDS011;18176;49.502;11.754;2022-09-17T12:58:41;7.80;;;2.00;;
21183;SDS011;18176;49.502;11.754;2022-09-17T13:02:29;9.95;;;2.40;;
21183;SDS011;18176;49.502;11.754;2022-09-17T13:24:13;6.03;;;2.30;;
21183;SDS011;18176;49.502;11.754;2022-09-17T13:28:13;6.97;;;2.63;;
21183;SDS011;18176;49.502;11.754;2022-09-17T13:32:40;4.50;;;1.70;;
21183;SDS011;18176;49.502;11.754;2022-09-17T13:36:36;3.42;;;1.67;;
21183;SDS011;18176;49.502;11.754;2022-09-17T13:40:39;4.68;;;1.45;;
21183;SDS011;18176;49.502;11.754;2022-09-17T13:44:38;3.63;;;1.60;;
21183;SDS011;18176;49.502;11.754;2022-09-17T13:48:45;4.25;;;1.48;;
21183;SDS011;18176;49.502;11.754;2022-09-17T13:52:48;9.00;;;2.47;;
21183;SDS011;18176;49.502;11.754;2022-09-17T13:56:48;4.43;;;1.83;;
21183;SDS011;18176;49.502;11.754;2022-09-17T14:05:24;5.23;;;1.63;;
21183;SDS011;18176;49.502;11.754;2022-09-17T14:09:30;3.03;;;1.60;;
21183;SDS011;18176;49.502;11.754;2022-09-17T14:13:41;5.47;;;2.10;;
21183;SDS011;18176;49.502;11.754;2022-09-17T14:17:50;5.70;;;2.57;;
21183;SDS011;18176;49.502;11.754;2022-09-17T14:25:56;5.80;;;1.90;;
21183;SDS011;18176;49.502;11.754;2022-09-17T14:30:11;3.03;;;1.93;;
21183;SDS011;18176;49.502;11.754;2022-09-17T14:34:23;4.63;;;2.07;;
21183;SDS011;18176;49.502;11.754;2022-09-17T14:38:37;3.77;;;1.83;;
21183;SDS011;18176;49.502;11.754;2022-09-17T14:42:40;5.33;;;1.80;;
21183;SDS011;18176;49.502;11.754;2022-09-17T14:46:39;4.03;;;1.40;;
21183;SDS011;18176;49.502;11.754;2022-09-17T15:03:41;2.70;;;1.40;;
21183;SDS011;18176;49.502;11.754;2022-09-17T15:07:38;2.65;;;1.10;;
21183;SDS011;18176;49.502;11.754;2022-09-17T15:11:40;3.78;;;1.55;;
21183;SDS011;18176;49.502;11.754;2022-09-17T15:15:48;2.80;;;1.05;;
21183;SDS011;18176;49.502;11.754;2022-09-17T15:19:50;2.85;;;1.40;;
21183;SDS011;18176;49.502;11.754;2022-09-17T15:23:53;2.47;;;1.10;;
21183;SDS011;18176;49.502;11.754;2022-09-17T15:32:58;4.63;;;1.60;;
21183;SDS011;18176;49.502;11.754;2022-09-17T15:37:06;2.40;;;1.40;;
21183;SDS011;18176;49.502;11.754;2022-09-17T15:41:29;5.30;;;1.40;;
21183;SDS011;18176;49.502;11.754;2022-09-17T15:45:29;3.95;;;1.63;;
21183;SDS011;18176;49.502;11.754;2022-09-17T15:49:34;3.97;;;2.00;;
21183;SDS011;18176;49.502;11.754;2022-09-17T15:53:32;2.72;;;1.88;;
21183;SDS011;18176;49.502;11.754;2022-09-17T15:57:32;2.90;;;1.90;;
21183;SDS011;18176;49.502;11.754;2022-09-17T16:05:43;5.10;;;2.57;;
21183;SDS011;18176;49.502;11.754;2022-09-17T16:09:49;6.20;;;2.53;;
21183;SDS011;18176;49.502;11.754;2022-09-17T16:13:48;4.07;;;2.40;;
21183;SDS011;18176;49.502;11.754;2022-09-17T16:17:48;9.33;;;5.47;;
21183;SDS011;18176;49.502;11.754;2022-09-17T16:21:45;6.23;;;2.10;;
21183;SDS011;18176;49.502;11.754;2022-09-17T16:25:42;5.47;;;2.30;;
21183;SDS011;18176;49.502;11.754;2022-09-17T16:29:39;4.77;;;2.40;;
21183;SDS011;18176;49.502;11.754;2022-09-17T16:33:36;5.23;;;2.67;;
21183;SDS011;18176;49.502;11.754;2022-09-17T16:37:33;5.67;;;2.40;;
21183;SDS011;18176;49.502;11.754;2022-09-17T16:41:30;4.87;;;2.43;;
21183;SDS011;18176;49.502;11.754;2022-09-17T16:45:28;5.53;;;2.30;;
21183;SDS011;18176;49.502;11.754;2022-09-17T16:49:26;5.20;;;2.53;;
21183;SDS011;18176;49.502;11.754;2022-09-17T16:53:23;6.90;;;2.70;;
21183;SDS011;18176;49.502;11.754;2022-09-17T16:57:20;7.90;;;2.90;;
21183;SDS011;18176;49.502;11.754;2022-09-17T17:01:20;6.40;;;2.93;;
21183;SDS011;18176;49.502;11.754;2022-09-17T17:05:18;7.80;;;3.60;;
21183;SDS011;18176;49.502;11.754;2022-09-17T17:09:15;6.03;;;3.43;;
21183;SDS011;18176;49.502;11.754;2022-09-17T17:13:12;12.20;;;6.73;;
21183;SDS011;18176;49.502;11.754;2022-09-17T17:17:09;5.90;;;2.90;;
21183;SDS011;18176;49.502;11.754;2022-09-17T17:21:07;9.43;;;2.90;;
21183;SDS011;18176;49.502;11.754;2022-09-17T17:25:06;6.10;;;2.90;;
21183;SDS011;18176;49.502;11.754;2022-09-17T17:29:03;7.00;;;3.20;;
21183;SDS011;18176;49.502;11.754;2022-09-17T17:33:00;6.73;;;3.03;;
21183;SDS011;18176;49.502;11.754;2022-09-17T17:36:59;4.97;;;2.80;;
21183;SDS011;18176;49.502;11.754;2022-09-17T17:41:10;3.03;;;1.97;;
21183;SDS011;18176;49.502;11.754;2022-09-17T17:45:09;5.03;;;2.60;;
21183;SDS011;18176;49.502;11.754;2022-09-17T17:49:06;3.93;;;2.20;;
21183;SDS011;18176;49.502;11.754;2022-09-17T17:53:03;3.80;;;2.40;;
21183;SDS011;18176;49.502;11.754;2022-09-17T17:57:00;6.60;;;2.67;;
21183;SDS011;18176;49.502;11.754;2022-09-17T18:00:58;4.97;;;3.00;;
21183;SDS011;18176;49.502;11.754;2022-09-17T18:04:55;4.80;;;2.10;;
21183;SDS011;18176;49.502;11.754;2022-09-17T18:08:59;5.43;;;2.07;;
21183;SDS011;18176;49.502;11.754;2022-09-17T18:12:56;4.27;;;2.30;;
21183;SDS011;18176;49.502;11.754;2022-09-17T18:16:53;4.40;;;2.13;;
21183;SDS011;18176;49.502;11.754;2022-09-17T18:20:51;3.60;;;1.90;;
21183;SDS011;18176;49.502;11.754;2022-09-17T18:24:51;9.90;;;4.70;;
21183;SDS011;18176;49.502;11.754;2022-09-17T18:28:48;5.37;;;2.90;;
21183;SDS011;18176;49.502;11.754;2022-09-17T18:32:46;2.80;;;1.70;;
21183;SDS011;18176;49.502;11.754;2022-09-17T18:36:44;4.57;;;2.40;;
21183;SDS011;18176;49.502;11.754;2022-09-17T18:40:46;4.23;;;2.07;;
21183;SDS011;18176;49.502;11.754;2022-09-17T18:44:43;4.90;;;2.00;;
21183;SDS011;18176;49.502;11.754;2022-09-17T18:48:40;5.57;;;2.13;;
21183;SDS011;18176;49.502;11.754;2022-09-17T18:52:37;3.53;;;1.50;;
21183;SDS011;18176;49.502;11.754;2022-09-17T18:56:34;4.07;;;2.00;;
21183;SDS011;18176;49.502;11.754;2022-09-17T19:00:34;4.80;;;1.87;;
21183;SDS011;18176;49.502;11.754;2022-09-17T19:04:35;3.43;;;1.87;;
21183;SDS011;18176;49.502;11.754;2022-09-17T19:08:33;5.00;;;1.57;;
21183;SDS011;18176;49.502;11.754;2022-09-17T19:12:30;5.53;;;2.33;;
21183;SDS011;18176;49.502;11.754;2022-09-17T19:16:27;5.67;;;1.70;;
21183;SDS011;18176;49.502;11.754;2022-09-17T19:20:24;7.93;;;1.57;;
21183;SDS011;18176;49.502;11.754;2022-09-17T19:24:21;3.07;;;1.20;;
21183;SDS011;18176;49.502;11.754;2022-09-17T19:28:18;4.27;;;1.40;;
21183;SDS011;18176;49.502;11.754;2022-09-17T19:32:17;2.73;;;1.37;;
21183;SDS011;18176;49.502;11.754;2022-09-17T19:36:14;3.30;;;1.30;;
21183;SDS011;18176;49.502;11.754;2022-09-17T19:40:13;4.83;;;1.63;;
21183;SDS011;18176;49.502;11.754;2022-09-17T19:44:10;5.40;;;1.70;;
21183;SDS011;18176;49.502;11.754;2022-09-17T19:48:07;4.50;;;1.63;;
21183;SDS011;18176;49.502;11.754;2022-09-17T19:52:04;5.70;;;2.30;;
21183;SDS011;18176;49.502;11.754;2022-09-17T19:56:01;5.50;;;2.40;;
21183;SDS011;18176;49.502;11.754;2022-09-17T19:59:59;3.30;;;1.50;;
21183;SDS011;18176;49.502;11.754;2022-09-17T20:04:05;3.60;;;1.57;;
21183;SDS011;18176;49.502;11.754;2022-09-17T20:08:03;3.97;;;1.40;;
21183;SDS011;18176;49.502;11.754;2022-09-17T20:12:00;4.13;;;1.60;;
21183;SDS011;18176;49.502;11.754;2022-09-17T20:16:04;2.40;;;1.43;;
21183;SDS011;18176;49.502;11.754;2022-09-17T20:20:05;4.03;;;1.60;;
21183;SDS011;18176;49.502;11.754;2022-09-17T20:24:03;2.43;;;1.47;;
21183;SDS011;18176;49.502;11.754;2022-09-17T20:28:02;3.53;;;1.43;;
21183;SDS011;18176;49.502;11.754;2022-09-17T20:31:59;5.43;;;1.83;;
21183;SDS011;18176;49.502;11.754;2022-09-17T20:35:57;7.10;;;2.90;;
21183;SDS011;18176;49.502;11.754;2022-09-17T20:40:00;5.67;;;2.93;;
21183;SDS011;18176;49.502;11.754;2022-09-17T20:43:58;2.30;;;1.60;;
21183;SDS011;18176;49.502;11.754;2022-09-17T20:47:55;5.37;;;1.83;;
21183;SDS011;18176;49.502;11.754;2022-09-17T20:51:52;4.60;;;1.77;;
21183;SDS011;18176;49.502;11.754;2022-09-17T20:55:56;3.00;;;1.70;;
21183;SDS011;18176;49.502;11.754;2022-09-17T20:59:55;3.73;;;1.50;;
21183;SDS011;18176;49.502;11.754;2022-09-17T21:03:55;3.10;;;1.40;;
21183;SDS011;18176;49.502;11.754;2022-09-17T21:07:55;4.50;;;1.50;;
21183;SDS011;18176;49.502;11.754;2022-09-17T21:11:52;2.77;;;1.27;;
21183;SDS011;18176;49.502;11.754;2022-09-17T21:15:56;3.67;;;1.50;;
21183;SDS011;18176;49.502;11.754;2022-09-17T21:19:55;6.40;;;2.50;;
21183;SDS011;18176;49.502;11.754;2022-09-17T21:23:53;1.90;;;1.33;;
21183;SDS011;18176;49.502;11.754;2022-09-17T21:27:58;1.83;;;1.20;;
21183;SDS011;18176;49.502;11.754;2022-09-17T21:31:58;3.50;;;1.20;;
21183;SDS011;18176;49.502;11.754;2022-09-17T21:40:06;5.17;;;1.30;;
21183;SDS011;18176;49.502;11.754;2022-09-17T21:44:03;2.93;;;1.37;;
21183;SDS011;18176;49.502;11.754;2022-09-17T21:48:01;6.93;;;1.33;;
21183;SDS011;18176;49.502;11.754;2022-09-17T21:51:58;1.97;;;1.10;;
21183;SDS011;18176;49.502;11.754;2022-09-17T21:56:02;3.77;;;1.10;;
21183;SDS011;18176;49.502;11.754;2022-09-17T22:00:04;3.63;;;1.33;;
21183;SDS011;18176;49.502;11.754;2022-09-17T22:04:05;6.03;;;1.37;;
21183;SDS011;18176;49.502;11.754;2022-09-17T22:08:05;5.73;;;1.17;;
21183;SDS011;18176;49.502;11.754;2022-09-17T22:12:02;5.93;;;3.17;;
21183;SDS011;18176;49.502;11.754;2022-09-17T22:16:02;3.60;;;1.40;;
21183;SDS011;18176;49.502;11.754;2022-09-17T22:20:02;4.83;;;1.50;;
21183;SDS011;18176;49.502;11.754;2022-09-17T22:24:00;5.87;;;1.40;;
21183;SDS011;18176;49.502;11.754;2022-09-17T22:28:02;3.13;;;1.13;;
21183;SDS011;18176;49.502;11.754;2022-09-17T22:32:16;2.80;;;1.03;;
21183;SDS011;18176;49.502;11.754;2022-09-17T22:36:14;4.20;;;1.30;;
21183;SDS011;18176;49.502;11.754;2022-09-17T22:40:14;3.37;;;1.37;;
21183;SDS011;18176;49.502;11.754;2022-09-17T22:44:12;5.40;;;1.60;;
21183;SDS011;18176;49.502;11.754;2022-09-17T22:48:13;2.30;;;1.20;;
21183;SDS011;18176;49.502;11.754;2022-09-17T22:52:10;3.40;;;1.20;;
21183;SDS011;18176;49.502;11.754;2022-09-17T22:56:10;3.10;;;1.43;;
21183;SDS011;18176;49.502;11.754;2022-09-17T23:00:11;5.37;;;1.50;;
21183;SDS011;18176;49.502;11.754;2022-09-17T23:04:09;5.20;;;1.20;;
21183;SDS011;18176;49.502;11.754;2022-09-17T23:08:06;4.00;;;1.20;;
21183;SDS011;18176;49.502;11.754;2022-09-17T23:12:03;4.20;;;1.40;;
21183;SDS011;18176;49.502;11.754;2022-09-17T23:16:04;7.77;;;1.90;;
21183;SDS011;18176;49.502;11.754;2022-09-17T23:20:04;3.27;;;1.50;;
21183;SDS011;18176;49.502;11.754;2022-09-17T23:24:01;4.73;;;1.33;;
21183;SDS011;18176;49.502;11.754;2022-09-17T23:27:59;5.67;;;1.80;;
21183;SDS011;18176;49.502;11.754;2022-09-17T23:31:56;3.23;;;1.27;;
21183;SDS011;18176;49.502;11.754;2022-09-17T23:35:53;4.63;;;1.40;;
21183;SDS011;18176;49.502;11.754;2022-09-17T23:39:50;4.13;;;1.17;;
21183;SDS011;18176;49.502;11.754;2022-09-17T23:43:50;5.77;;;1.60;;
21183;SDS011;18176;49.502;11.754;2022-09-17T23:47:53;3.27;;;1.30;;
21183;SDS011;18176;49.502;11.754;2022-09-17T23:51:50;3.23;;;1.37;;
21183;SDS011;18176;49.502;11.754;2022-09-17T23:55:47;3.80;;;1.30;;
21183;SDS011;18176;49.502;11.754;2022-09-17T23:59:45;4.30;;;1.37;;
